Temp: 13.6°C   Baro: 1022.5mb
  Wind: 2.0mph   Dir: NE (52°)
  Rain: 0.0mm (0.0mm/hr)
  Sun: 0W/m2  Humidity: 77%

Historic data

Bath Spa Weather Station Historical Data
Daily Summary for May 17, 2024 Units:  English    Metric   Both
Daily Weekly Monthly Yearly Custom
  High: Low: Average:
Temperature: 71.5 °F 47.1 °F 59.6 °F
Dew Point: 55.1 °F 44.6 °F 50.7 °F
Humidity: 92% 50.8% 74%
Wind Speed: 6.2mph 0mph 1.5mph
Wind Gust: 12mph - -
Wind- - SE
Pressure: 29.92 in 29.72 in -
Precipitation: 0.00 in    
Historical Graphs
 
 
Tabular Data for May 17, 2024
Time Temperature Dew Point Pressure Wind Wind Speed Wind Gust Humidity Rainfall Rate (Hourly) solar
00:09 54.3 °F 50.9 °F 29.72 in Calm     88% 0.00 in 0 W/m2
00:14 54.3 °F 50.9 °F 29.72 in WNW 0.2 mph 2 mph 88% 0.00 in 0 W/m2
00:19 54.1 °F 50.7 °F 29.72 in WNW 0.9 mph 2 mph 88% 0.00 in 0 W/m2
00:24 54.1 °F 50.7 °F 29.72 in WNW 0.4 mph 2 mph 88% 0.00 in 0 W/m2
00:29 54.1 °F 50.6 °F 29.72 in Calm   1 mph 88% 0.00 in 0 W/m2
00:34 54 °F 50.5 °F 29.72 in Calm     88% 0.00 in 0 W/m2
00:39 53.9 °F 50.4 °F 29.72 in Calm     88% 0.00 in 0 W/m2
00:44 53.6 °F 50.3 °F 29.72 in Calm     88.2% 0.00 in 0 W/m2
00:49 53.3 °F 50 °F 29.72 in Calm     88.2% 0.00 in 0 W/m2
00:54 53.1 °F 49.7 °F 29.72 in Calm     88% 0.00 in 0 W/m2
00:59 53 °F 49.6 °F 29.72 in Calm     88.8% 0.00 in 0 W/m2
01:04 52.8 °F 49.6 °F 29.72 in Calm     89% 0.00 in 0 W/m2
01:09 52.6 °F 49.2 °F 29.72 in Calm     88% 0.00 in 0 W/m2
01:14 52.4 °F 49 °F 29.72 in Calm     88% 0.00 in 0 W/m2
01:19 52.3 °F 49.3 °F 29.72 in Calm     89% 0.00 in 0 W/m2
01:24 52.2 °F 49.1 °F 29.72 in WNW 0.2 mph 2 mph 89% 0.00 in 0 W/m2
01:29 52 °F 48.9 °F 29.72 in Calm     89% 0.00 in 0 W/m2
01:34 52 °F 48.9 °F 29.72 in Calm     89% 0.00 in 0 W/m2
01:39 51.7 °F 48.7 °F 29.72 in Calm     89% 0.00 in 0 W/m2
01:44 51.6 °F 48.6 °F 29.72 in Calm     89% 0.00 in 0 W/m2
01:49 51.5 °F 48.5 °F 29.72 in Calm     89% 0.00 in 0 W/m2
01:54 51.4 °F 48.4 °F 29.72 in Calm     89% 0.00 in 0 W/m2
01:59 51.4 °F 48.4 °F 29.72 in Calm     89% 0.00 in 0 W/m2
02:04 51.3 °F 48.2 °F 29.72 in Calm     89% 0.00 in 0 W/m2
02:09 51.3 °F 48.2 °F 29.72 in Calm     89% 0.00 in 0 W/m2
02:14 51.3 °F 48.2 °F 29.72 in Calm     89% 0.00 in 0 W/m2
02:19 51.3 °F 48.2 °F 29.72 in Calm     89% 0.00 in 0 W/m2
02:24 51.3 °F 48.2 °F 29.72 in Calm     89% 0.00 in 0 W/m2
02:29 51.1 °F 48 °F 29.72 in Calm     89% 0.00 in 0 W/m2
02:34 51.1 °F 48 °F 29.72 in Calm     89% 0.00 in 0 W/m2
02:39 50.8 °F 47.9 °F 29.72 in Calm     89.8% 0.00 in 0 W/m2
02:44 50.7 °F 47.7 °F 29.72 in Calm     89.4% 0.00 in 0 W/m2
02:49 50.7 °F 47.7 °F 29.72 in Calm     89% 0.00 in 0 W/m2
02:54 50.5 °F 47.6 °F 29.72 in Calm     89.8% 0.00 in 0 W/m2
02:59 50.3 °F 47.4 °F 29.73 in Calm     90% 0.00 in 0 W/m2
03:04 50.2 °F 47.3 °F 29.73 in WNW 0.8 mph 3 mph 90% 0.00 in 0 W/m2
03:09 50.2 °F 47.3 °F 29.73 in WNW 0.4 mph 3 mph 90% 0.00 in 0 W/m2
03:14 49.9 °F 47 °F 29.73 in WNW 1.3 mph 3 mph 90% 0.00 in 0 W/m2
03:19 49.6 °F 46.8 °F 29.73 in WNW 0.8 mph 3 mph 90% 0.00 in 0 W/m2
03:24 49.6 °F 46.8 °F 29.74 in Calm   1 mph 90% 0.00 in 0 W/m2
03:29 49.5 °F 46.6 °F 29.74 in Calm   1 mph 90% 0.00 in 0 W/m2
03:34 49.5 °F 46.6 °F 29.74 in WNW 1.2 mph 3 mph 90% 0.00 in 0 W/m2
03:39 49.3 °F 46.4 °F 29.74 in Calm   3 mph 90% 0.00 in 0 W/m2
03:44 49.3 °F 46.4 °F 29.74 in Calm     90% 0.00 in 0 W/m2
03:49 49.3 °F 46.4 °F 29.74 in Calm     90% 0.00 in 0 W/m2
03:54 48.9 °F 46 °F 29.75 in Calm     90% 0.00 in 0 W/m2
03:59 48.9 °F 46.2 °F 29.75 in Calm     90.4% 0.00 in 0 W/m2
04:04 48.9 °F 46 °F 29.75 in Calm     90% 0.00 in 0 W/m2
04:09 48.7 °F 45.9 °F 29.75 in Calm     90% 0.00 in 0 W/m2
04:14 48.6 °F 46.1 °F 29.75 in Calm     91% 0.00 in 0 W/m2
04:19 48.6 °F 46 °F 29.75 in Calm     91% 0.00 in 0 W/m2
04:24 48.6 °F 46 °F 29.75 in Calm     91% 0.00 in 0 W/m2
04:29 48.5 °F 45.9 °F 29.75 in Calm     91% 0.00 in 0 W/m2
04:34 48.4 °F 45.9 °F 29.75 in Calm     91% 0.00 in 0 W/m2
04:39 48.3 °F 45.8 °F 29.75 in Calm     91% 0.00 in 0 W/m2
04:44 48.1 °F 45.6 °F 29.75 in Calm     91% 0.00 in 0 W/m2
04:49 48 °F 45.5 °F 29.75 in Calm     91% 0.00 in 0 W/m2
04:54 47.8 °F 45.3 °F 29.75 in Calm     91% 0.00 in 0 W/m2
04:59 47.8 °F 45.3 °F 29.75 in Calm     91% 0.00 in 0 W/m2
05:04 47.7 °F 45.2 °F 29.75 in Calm     91% 0.00 in 0 W/m2
05:09 47.7 °F 45.1 °F 29.76 in Calm     91% 0.00 in 0 W/m2
05:14 47.5 °F 45 °F 29.76 in Calm     91% 0.00 in 0 W/m2
05:19 47.5 °F 45 °F 29.76 in Calm     91% 0.00 in 0 W/m2
05:24 47.5 °F 45 °F 29.76 in Calm     91% 0.00 in 0 W/m2
05:29 47.5 °F 45 °F 29.76 in Calm     91% 0.00 in 5 W/m2
05:34 47.3 °F 44.8 °F 29.76 in Calm     91% 0.00 in 7 W/m2
05:39 47.3 °F 44.8 °F 29.77 in Calm     91% 0.00 in 9 W/m2
05:44 47.2 °F 44.7 °F 29.77 in Calm     91% 0.00 in 12 W/m2
05:49 47.2 °F 44.7 °F 29.77 in Calm     91% 0.00 in 14 W/m2
05:54 47.3 °F 44.8 °F 29.77 in Calm     91% 0.00 in 16 W/m2
05:59 47.2 °F 44.7 °F 29.77 in Calm     91% 0.00 in 19 W/m2
06:04 47.1 °F 44.6 °F 29.77 in Calm     91% 0.00 in 26 W/m2
06:09 47.1 °F 44.6 °F 29.77 in Calm     91% 0.00 in 23 W/m2
06:14 47.1 °F 44.6 °F 29.77 in Calm     91% 0.00 in 25 W/m2
06:19 47.1 °F 44.6 °F 29.78 in Calm     91% 0.00 in 33 W/m2
06:24 47.3 °F 45 °F 29.78 in Calm     91.6% 0.00 in 42 W/m2
06:29 47.3 °F 45.1 °F 29.78 in Calm     91.8% 0.00 in 49 W/m2
06:34 47.4 °F 45.2 °F 29.78 in Calm     92% 0.00 in 56 W/m2
06:39 47.5 °F 45.3 °F 29.78 in Calm     92% 0.00 in 65 W/m2
06:44 47.7 °F 45.5 °F 29.78 in Calm     92% 0.00 in 69 W/m2
06:49 47.7 °F 45.6 °F 29.78 in Calm     92% 0.00 in 90 W/m2
06:54 47.9 °F 45.8 °F 29.78 in Calm     92% 0.00 in 95 W/m2
06:59 48.4 °F 46.2 °F 29.78 in Calm     92% 0.00 in 104 W/m2
07:04 48.7 °F 46.6 °F 29.78 in Calm     92% 0.00 in 128 W/m2
07:09 49 °F 46.9 °F 29.78 in WNW 0.5 mph 2 mph 92% 0.00 in 146 W/m2
07:14 49.4 °F 47.2 °F 29.78 in WNW 0.7 mph 2 mph 92% 0.00 in 153 W/m2
07:19 49.7 °F 47.6 °F 29.78 in WNW 0.5 mph 2 mph 92% 0.00 in 174 W/m2
07:24 49.8 °F 47.7 °F 29.78 in WNW 0.5 mph 2 mph 92% 0.00 in 211 W/m2
07:28 50 °F 47.8 °F 29.78 in WNW 0.7 mph 2 mph 92% 0.00 in 225 W/m2
07:34 50.1 °F 47.9 °F 29.78 in WNW 0.9 mph 2 mph 92% 0.00 in 248 W/m2
07:39 50.4 °F 48.2 °F 29.78 in WNW 0.9 mph 2 mph 92% 0.00 in 248 W/m2
07:44 50.8 °F 48.6 °F 29.78 in WNW 0.7 mph 2 mph 92% 0.00 in 269 W/m2
07:49 51.2 °F 49.1 °F 29.79 in WNW 1 mph 3 mph 92% 0.00 in 311 W/m2
07:54 51.5 °F 49.4 °F 29.79 in WNW 1.3 mph 2 mph 92% 0.00 in 323 W/m2
07:59 52.1 °F 49.7 °F 29.79 in West 1.8 mph 3 mph 92% 0.00 in 332 W/m2
08:04 52.6 °F 50.3 °F 29.79 in SSW 2 mph 5 mph 92% 0.00 in 336 W/m2
08:09 53.1 °F 50.7 °F 29.79 in SSE 1.7 mph 5 mph 91.8% 0.00 in 336 W/m2
08:14 53.4 °F 50.9 °F 29.79 in SSE 2.1 mph 4 mph 91% 0.00 in 355 W/m2
08:19 53.9 °F 51.4 °F 29.79 in SSE 0.9 mph 3 mph 91% 0.00 in 367 W/m2
08:24 54.3 °F 51.7 °F 29.79 in SSE 0.4 mph 3 mph 90.6% 0.00 in 392 W/m2
08:29 54.8 °F 52 °F 29.79 in SSE 1.1 mph 3 mph 90% 0.00 in 406 W/m2
08:34 55.3 °F 52.3 °F 29.79 in SSE 1.6 mph 4 mph 89.8% 0.00 in 415 W/m2
08:39 55.6 °F 52.3 °F 29.79 in SSE 0.6 mph 3 mph 88.8% 0.00 in 413 W/m2
08:44 55.9 °F 52.5 °F 29.80 in SSE 0.8 mph 3 mph 88% 0.00 in 450 W/m2
08:49 56.4 °F 52.6 °F 29.80 in SSE 1.7 mph 4 mph 87% 0.00 in 454 W/m2
08:54 56.9 °F 52.7 °F 29.80 in ESE 2.1 mph 4 mph 85.8% 0.00 in 492 W/m2
08:59 57.6 °F 53.1 °F 29.80 in ESE 1.2 mph 4 mph 85% 0.00 in 497 W/m2
09:04 57.7 °F 52.7 °F 29.80 in ESE 1.3 mph 4 mph 83% 0.00 in 501 W/m2
09:09 58 °F 52.6 °F 29.80 in ESE 1.2 mph 3 mph 82% 0.00 in 517 W/m2
09:14 58.5 °F 52.3 °F 29.80 in SE 2.2 mph 5 mph 79.8% 0.00 in 522 W/m2
09:19 58.5 °F 51.4 °F 29.80 in SSE 1.2 mph 4 mph 77.4% 0.00 in 533 W/m2
09:24 58.5 °F 50.8 °F 29.80 in SSE 1.2 mph 4 mph 75.8% 0.00 in 547 W/m2
09:29 59.1 °F 51.1 °F 29.80 in ESE 2.4 mph 5 mph 74.8% 0.00 in 541 W/m2
09:34 60.1 °F 51.6 °F 29.80 in East 1.6 mph 5 mph 73.4% 0.00 in 555 W/m2
09:39 60.3 °F 50.9 °F 29.80 in SSE 2 mph 5 mph 71.2% 0.00 in 575 W/m2
09:44 59.6 °F 49.9 °F 29.81 in South 2.4 mph 6 mph 70% 0.00 in 596 W/m2
09:49 60.1 °F 50.3 °F 29.81 in South 3.3 mph 5 mph 70.2% 0.00 in 636 W/m2
09:54 60.3 °F 50 °F 29.81 in SSE 2.1 mph 6 mph 69% 0.00 in 566 W/m2
09:59 60.5 °F 50.2 °F 29.81 in SE 2.4 mph 5 mph 69% 0.00 in 464 W/m2
10:04 61 °F 50.6 °F 29.82 in East 2.2 mph 7 mph 68.8% 0.00 in 487 W/m2
10:09 61.3 °F 50.6 °F 29.82 in ESE 2.3 mph 5 mph 67.6% 0.00 in 529 W/m2
10:14 61.2 °F 50.6 °F 29.82 in East 1.6 mph 5 mph 68.2% 0.00 in 580 W/m2
10:19 61.3 °F 50.7 °F 29.82 in ESE 2.6 mph 5 mph 68.2% 0.00 in 584 W/m2
10:24 61.6 °F 51.1 °F 29.82 in East 2 mph 6 mph 68.4% 0.00 in 585 W/m2
10:29 62.8 °F 52.2 °F 29.82 in NE 1.5 mph 6 mph 68.3% 0.00 in 612 W/m2
10:34 63.4 °F 51.8 °F 29.82 in SE 1.3 mph 5 mph 65.8% 0.00 in 596 W/m2
10:39 63.3 °F 51.5 °F 29.82 in ESE 1.3 mph 5 mph 65.2% 0.00 in 610 W/m2
10:44 63.5 °F 51.3 °F 29.82 in ESE 1.7 mph 4 mph 64.6% 0.00 in 647 W/m2
10:49 63.2 °F 50.1 °F 29.83 in SE 2.8 mph 8 mph 62.4% 0.00 in 638 W/m2
10:54 62.7 °F 49.4 °F 29.83 in SE 4.5 mph 8 mph 61.8% 0.00 in 687 W/m2
10:59 62.1 °F 48.2 °F 29.83 in SE 3.7 mph 8 mph 60.6% 0.00 in 722 W/m2
11:04 61.7 °F 48 °F 29.83 in South 2.8 mph 5 mph 60.8% 0.00 in 626 W/m2
11:09 62.8 °F 49.5 °F 29.83 in SE 2.4 mph 8 mph 61.8% 0.00 in 742 W/m2
11:13 63.2 °F 49.6 °F 29.83 in SE 2.4 mph 5 mph 61.3% 0.00 in 673 W/m2
11:29 63 °F 50.8 °F 29.83 in SE 3 mph 5 mph 64.5% 0.00 in 663 W/m2
11:34 63.8 °F 50.8 °F 29.83 in SE 1.9 mph 7 mph 62.6% 0.00 in 670 W/m2
11:39 64 °F 50.9 °F 29.83 in SE 3.2 mph 7 mph 62.4% 0.00 in 689 W/m2
11:44 64.1 °F 51.2 °F 29.83 in ESE 2.5 mph 7 mph 62.6% 0.00 in 735 W/m2
11:49 64.5 °F 51.3 °F 29.83 in SE 4.7 mph 8 mph 62.2% 0.00 in 772 W/m2
11:54 64.1 °F 51 °F 29.83 in SE 3.2 mph 7 mph 62.4% 0.00 in 779 W/m2
11:59 64.4 °F 51.5 °F 29.83 in SSE 2.1 mph 5 mph 62.8% 0.00 in 784 W/m2
12:04 64.8 °F 52.1 °F 29.83 in SE 2.5 mph 6 mph 63.4% 0.00 in 793 W/m2
12:09 64.4 °F 52 °F 29.83 in SSE 3.2 mph 7 mph 64.2% 0.00 in 830 W/m2
12:14 64.4 °F 52.5 °F 29.83 in SSE 4.3 mph 9 mph 65.2% 0.00 in 891 W/m2
12:19 64.7 °F 52.5 °F 29.84 in ESE 3.2 mph 7 mph 64.4% 0.00 in 891 W/m2
12:24 65 °F 52 °F 29.83 in SSE 2.1 mph 8 mph 63% 0.00 in 431 W/m2
12:29 64.5 °F 52.2 °F 29.83 in SE 4.2 mph 8 mph 64.4% 0.00 in 673 W/m2
12:34 63.9 °F 52 °F 29.83 in SE 4.1 mph 10 mph 65.2% 0.00 in 919 W/m2
12:39 64.7 °F 53 °F 29.83 in SE 2.3 mph 7 mph 65.8% 0.00 in 881 W/m2
12:44 65.7 °F 53.7 °F 29.83 in NE 3 mph 7 mph 65.2% 0.00 in 898 W/m2
12:49 67.1 °F 54.2 °F 29.84 in SSE 3.2 mph 8 mph 63.2% 0.00 in 879 W/m2
12:54 66.4 °F 53.4 °F 29.84 in SE 3.2 mph 7 mph 63% 0.00 in 874 W/m2
12:59 66.4 °F 54.1 °F 29.84 in ESE 4.3 mph 9 mph 64.6% 0.00 in 821 W/m2
13:04 66.7 °F 54.1 °F 29.84 in ESE 3.2 mph 8 mph 63.8% 0.00 in 429 W/m2
13:09 66 °F 53.7 °F 29.84 in SE 3.9 mph 8 mph 64.6% 0.00 in 956 W/m2
13:14 66.5 °F 54.2 °F 29.84 in ENE 1.3 mph 4 mph 64.6% 0.00 in 969 W/m2
13:19 67 °F 54.1 °F 29.84 in SE 3.8 mph 7 mph 63.2% 0.00 in 969 W/m2
13:24 67.2 °F 53.8 °F 29.84 in ESE 3 mph 7 mph 62.3% 0.00 in 860 W/m2
13:29 67.7 °F 54 °F 29.84 in ESE 3 mph 7 mph 61.4% 0.00 in 315 W/m2
13:34 68.4 °F 54.1 °F 29.84 in East 3.7 mph 7 mph 60.4% 0.00 in 904 W/m2
13:39 68.6 °F 53.8 °F 29.84 in ENE 2.9 mph 6 mph 59.2% 0.00 in 919 W/m2
13:44 66.1 °F 52.8 °F 29.84 in SSE 4.5 mph 8 mph 62.2% 0.00 in 257 W/m2
13:49 65 °F 53 °F 29.84 in SSE 4.5 mph 8 mph 65% 0.00 in 882 W/m2
13:54 64.9 °F 53 °F 29.84 in SE 5.2 mph 8 mph 65.2% 0.00 in 947 W/m2
13:59 65.8 °F 53.3 °F 29.84 in SSE 2.8 mph 8 mph 64.2% 0.00 in 851 W/m2
14:04 65.8 °F 53.3 °F 29.84 in SE 6.2 mph 11 mph 64% 0.00 in 264 W/m2
14:09 65.5 °F 53.4 °F 29.84 in SE 3.7 mph 8 mph 65.2% 0.00 in 884 W/m2
14:14 65.8 °F 53 °F 29.84 in SE 2.9 mph 6 mph 63.4% 0.00 in 882 W/m2
14:19 65.6 °F 53.1 °F 29.84 in SSE 5 mph 9 mph 64% 0.00 in 294 W/m2
14:24 65.8 °F 53.7 °F 29.84 in ESE 4.1 mph 8 mph 65% 0.00 in 867 W/m2
14:29 67.5 °F 54.1 °F 29.84 in East 2.9 mph 9 mph 62.2% 0.00 in 912 W/m2
14:34 69.6 °F 54.6 °F 29.84 in ENE 3.8 mph 10 mph 59% 0.00 in 909 W/m2
14:39 69.9 °F 53.4 °F 29.84 in SE 5.2 mph 12 mph 55.8% 0.00 in 865 W/m2
14:44 68.1 °F 52 °F 29.84 in ESE 3.2 mph 7 mph 56.4% 0.00 in 870 W/m2
14:49 67.8 °F 51.6 °F 29.84 in SE 5.4 mph 10 mph 56.2% 0.00 in 905 W/m2
14:54 67.1 °F 51 °F 29.84 in SE 4.1 mph 10 mph 56.2% 0.00 in 912 W/m2
14:59 68.2 °F 51.9 °F 29.84 in ESE 4.8 mph 8 mph 56% 0.00 in 865 W/m2
15:04 68.7 °F 51.4 °F 29.84 in ESE 4.5 mph 8 mph 54% 0.00 in 877 W/m2
15:09 69.3 °F 52 °F 29.84 in ESE 4.1 mph 9 mph 54% 0.00 in 851 W/m2
15:14 69.7 °F 52.3 °F 29.84 in SE 2.1 mph 9 mph 54% 0.00 in 846 W/m2
15:19 70.1 °F 52.6 °F 29.84 in ESE 4 mph 9 mph 54% 0.00 in 921 W/m2
15:24 69.9 °F 51.7 °F 29.84 in SE 4.3 mph 9 mph 52.4% 0.00 in 810 W/m2
15:29 68.7 °F 51.3 °F 29.84 in SSE 3 mph 6 mph 53.8% 0.00 in 657 W/m2
15:34 67.5 °F 51.6 °F 29.84 in SE 4.2 mph 9 mph 56.8% 0.00 in 886 W/m2
15:39 67.6 °F 51.5 °F 29.84 in SE 2.3 mph 9 mph 56.4% 0.00 in 868 W/m2
15:44 68.8 °F 52.2 °F 29.84 in East 3.5 mph 7 mph 55.4% 0.00 in 770 W/m2
15:49 69.9 °F 52.6 °F 29.84 in ENE 2.9 mph 8 mph 54.2% 0.00 in 756 W/m2
15:54 71.2 °F 53 °F 29.84 in ESE 2.3 mph 8 mph 52.6% 0.00 in 693 W/m2
15:59 69.2 °F 51.8 °F 29.84 in SSE 2.5 mph 7 mph 53.8% 0.00 in 503 W/m2
16:04 68.7 °F 51.9 °F 29.84 in SSE 1.7 mph 5 mph 55% 0.00 in 415 W/m2
16:09 68.6 °F 51.4 °F 29.84 in SSE 3.2 mph 8 mph 54.2% 0.00 in 536 W/m2
16:14 68.2 °F 51.1 °F 29.84 in SE 3.3 mph 6 mph 54.4% 0.00 in 480 W/m2
16:19 67.4 °F 50.7 °F 29.84 in South 4.7 mph 8 mph 55% 0.00 in 538 W/m2
16:24 67.7 °F 50.7 °F 29.85 in SSE 2 mph 7 mph 54.6% 0.00 in 619 W/m2
16:29 68.5 °F 51.2 °F 29.85 in ESE 2.4 mph 8 mph 54% 0.00 in 733 W/m2
16:34 69.5 °F 51.3 °F 29.85 in SE 2.7 mph 6 mph 52.4% 0.00 in 721 W/m2
16:39 69.4 °F 51.3 °F 29.85 in SE 4.2 mph 6 mph 52.4% 0.00 in 599 W/m2
16:44 69.8 °F 51.4 °F 29.85 in ESE 2.4 mph 6 mph 51.8% 0.00 in 714 W/m2
16:49 69.9 °F 50.9 °F 29.85 in SE 2.9 mph 7 mph 50.8% 0.00 in 761 W/m2
16:54 69.2 °F 51 °F 29.85 in ESE 3.7 mph 7 mph 52.4% 0.00 in 691 W/m2
16:59 69.4 °F 51.3 °F 29.85 in SE 2.5 mph 6 mph 52.4% 0.00 in 707 W/m2
17:04 70 °F 51.9 °F 29.85 in ESE 1.6 mph 4 mph 52.6% 0.00 in 696 W/m2
17:09 70.4 °F 51.5 °F 29.85 in ESE 0.9 mph 2 mph 51.2% 0.00 in 257 W/m2
17:14 69.7 °F 51.4 °F 29.85 in SSW 2.1 mph 4 mph 52% 0.00 in 229 W/m2
17:19 68.7 °F 50.7 °F 29.85 in SSE 2.9 mph 6 mph 52.6% 0.00 in 216 W/m2
17:24 68.2 °F 51.2 °F 29.85 in ENE 2.6 mph 4 mph 54.6% 0.00 in 165 W/m2
17:29 68.9 °F 52.1 °F 29.85 in NE 2.1 mph 8 mph 55% 0.00 in 193 W/m2
17:34 69.4 °F 52.3 °F 29.85 in NNE 2.2 mph 6 mph 54.4% 0.00 in 230 W/m2
17:39 69.7 °F 52.4 °F 29.85 in NNE 3 mph 6 mph 54.2% 0.00 in 387 W/m2
17:44 70.2 °F 52.3 °F 29.85 in NE 2 mph 4 mph 53.2% 0.00 in 374 W/m2
17:49 70.2 °F 52.7 °F 29.85 in NE 2.4 mph 5 mph 54% 0.00 in 218 W/m2
17:54 70.3 °F 52.9 °F 29.85 in NNE 2 mph 5 mph 54% 0.00 in 204 W/m2
17:59 70.6 °F 53.1 °F 29.85 in NNE 1.7 mph 5 mph 54% 0.00 in 209 W/m2
18:04 70.7 °F 52.8 °F 29.85 in NNE 2.9 mph 5 mph 53.2% 0.00 in 232 W/m2
18:09 70.7 °F 52.9 °F 29.85 in ENE 2.2 mph 5 mph 53.4% 0.00 in 237 W/m2
18:14 71 °F 53 °F 29.85 in ENE 1.1 mph 3 mph 53% 0.00 in 248 W/m2
18:19 71.3 °F 53.4 °F 29.85 in ENE 2.2 mph 4 mph 53.2% 0.00 in 218 W/m2
18:24 71.4 °F 53.2 °F 29.85 in ENE 1.2 mph 3 mph 52.6% 0.00 in 225 W/m2
18:29 71.5 °F 53.2 °F 29.85 in ENE 1.2 mph 3 mph 52.4% 0.00 in 258 W/m2
18:34 71.5 °F 53.4 °F 29.86 in NE 2.2 mph 5 mph 52.8% 0.00 in 258 W/m2
18:39 71.3 °F 53.1 °F 29.86 in NNE 1.7 mph 4 mph 52.6% 0.00 in 220 W/m2
18:44 70.4 °F 52.9 °F 29.86 in North 2.2 mph 4 mph 54% 0.00 in 190 W/m2
18:49 69.4 °F 52.3 °F 29.86 in NNE 1.6 mph 4 mph 54.6% 0.00 in 146 W/m2
18:54 69.4 °F 52.9 °F 29.86 in NE 0.7 mph 4 mph 55.8% 0.00 in 146 W/m2
18:59 69.5 °F 53.3 °F 29.86 in NE 3 mph 5 mph 56.2% 0.00 in 142 W/m2
19:04 69.6 °F 53.3 °F 29.86 in NE 2.2 mph 5 mph 56.2% 0.00 in 127 W/m2
19:09 69.5 °F 53.2 °F 29.86 in NE 1.4 mph 3 mph 56.2% 0.00 in 127 W/m2
19:14 69.2 °F 53.3 °F 29.86 in NE 1.5 mph 4 mph 57% 0.00 in 123 W/m2
19:19 68.9 °F 53.5 °F 29.87 in NE 2.1 mph 4 mph 57.8% 0.00 in 130 W/m2
19:24 68.9 °F 53.6 °F 29.87 in NE 2.1 mph 3 mph 58% 0.00 in 132 W/m2
19:29 69 °F 53.6 °F 29.87 in NE 2.5 mph 5 mph 58% 0.00 in 151 W/m2
19:34 69.2 °F 53.7 °F 29.87 in NE 1.4 mph 4 mph 58% 0.00 in 149 W/m2
19:39 69.5 °F 54 °F 29.87 in NE 1.9 mph 4 mph 58% 0.00 in 130 W/m2
19:44 69.8 °F 54.3 °F 29.87 in NE 1.7 mph 4 mph 58% 0.00 in 111 W/m2
19:49 70 °F 54.5 °F 29.87 in NE 1.4 mph 4 mph 58% 0.00 in 74 W/m2
19:54 69.6 °F 54.1 °F 29.87 in NE 1.7 mph 4 mph 58% 0.00 in 56 W/m2
19:59 69.3 °F 54 °F 29.88 in NE 1.3 mph 3 mph 58.4% 0.00 in 53 W/m2
20:04 68.9 °F 54 °F 29.88 in NE 1.4 mph 3 mph 59% 0.00 in 44 W/m2
20:09 68.5 °F 53.9 °F 29.88 in NE 2 mph 4 mph 59.6% 0.00 in 39 W/m2
20:14 68.2 °F 54 °F 29.88 in NE 0.9 mph 3 mph 60.6% 0.00 in 37 W/m2
20:19 67.8 °F 54.2 °F 29.88 in NE 1.1 mph 2 mph 61.8% 0.00 in 35 W/m2
20:24 67.6 °F 54.2 °F 29.88 in NE 1.2 mph 3 mph 62.2% 0.00 in 30 W/m2
20:29 67.2 °F 54.2 °F 29.88 in NE 0.6 mph 4 mph 63% 0.00 in 23 W/m2
20:34 66.8 °F 54.3 °F 29.88 in East 2 mph 7 mph 64.2% 0.00 in 19 W/m2
20:39 66.2 °F 54.3 °F 29.88 in East 1.3 mph 3 mph 65.6% 0.00 in 14 W/m2
20:44 65.4 °F 54.5 °F 29.89 in ESE 1.7 mph 4 mph 67.8% 0.00 in 9 W/m2
20:49 64.8 °F 54.4 °F 29.89 in Calm   3 mph 69% 0.00 in 5 W/m2
20:54 64.5 °F 54.6 °F 29.89 in ESE 1 mph 4 mph 70.4% 0.00 in 0 W/m2
20:59 64 °F 54.9 °F 29.89 in SE 1.6 mph 3 mph 72% 0.00 in 0 W/m2
21:04 63.8 °F 55.1 °F 29.89 in SE 0.6 mph 3 mph 73.6% 0.00 in 0 W/m2
21:09 63.4 °F 55.1 °F 29.90 in SE 0.4 mph 2 mph 74.4% 0.00 in 0 W/m2
21:14 63.1 °F 55 °F 29.90 in SE 1.2 mph 3 mph 75% 0.00 in 0 W/m2
21:19 62.8 °F 55 °F 29.90 in SE 0.8 mph 3 mph 76% 0.00 in 0 W/m2
21:24 62.3 °F 54.7 °F 29.90 in SE 1.1 mph 3 mph 76.2% 0.00 in 0 W/m2
21:29 62 °F 54.7 °F 29.90 in SW 1.5 mph 5 mph 77% 0.00 in 0 W/m2
21:34 61.7 °F 54.5 °F 29.90 in SW 0.9 mph 2 mph 77% 0.00 in 0 W/m2
21:39 61.5 °F 54.3 °F 29.90 in SW 0.5 mph 3 mph 77% 0.00 in 0 W/m2
21:44 61.3 °F 54.1 °F 29.91 in SW 0.4 mph 3 mph 77% 0.00 in 0 W/m2
21:49 61.1 °F 53.9 °F 29.91 in SW 1.3 mph 4 mph 77% 0.00 in 0 W/m2
21:54 60.6 °F 53.4 °F 29.91 in SW 2.5 mph 4 mph 77% 0.00 in 0 W/m2
21:59 60.2 °F 53 °F 29.91 in WSW 2.8 mph 5 mph 77% 0.00 in 0 W/m2
22:04 59.8 °F 52.6 °F 29.91 in WNW 2.1 mph 5 mph 77% 0.00 in 0 W/m2
22:09 59.5 °F 52.3 °F 29.91 in West 1.7 mph 5 mph 77% 0.00 in 0 W/m2
22:14 59.4 °F 52.2 °F 29.91 in West 2 mph 4 mph 77% 0.00 in 0 W/m2
22:19 59.2 °F 52.3 °F 29.91 in West 1.6 mph 3 mph 77.8% 0.00 in 0 W/m2
22:24 58.9 °F 52.2 °F 29.91 in West 2.1 mph 3 mph 78.2% 0.00 in 0 W/m2
22:29 58.7 °F 52.2 °F 29.91 in West 1.2 mph 3 mph 78.8% 0.00 in 0 W/m2
22:34 58.6 °F 52.2 °F 29.91 in West 1 mph 2 mph 79% 0.00 in 0 W/m2
22:39 58.4 °F 52.2 °F 29.91 in West 0.7 mph 2 mph 80% 0.00 in 0 W/m2
22:44 58.1 °F 52 °F 29.91 in Calm   2 mph 80% 0.00 in 0 W/m2
22:49 57.9 °F 52 °F 29.91 in Calm     80.6% 0.00 in 0 W/m2
22:54 57.7 °F 52 °F 29.91 in West 0.2 mph 1 mph 81% 0.00 in 0 W/m2
22:59 57.5 °F 51.8 °F 29.91 in Calm     81.2% 0.00 in 0 W/m2
23:04 57.3 °F 51.8 °F 29.91 in Calm     82% 0.00 in 0 W/m2
23:09 56.9 °F 51.5 °F 29.91 in Calm     82% 0.00 in 0 W/m2
23:14 56.7 °F 51.5 °F 29.91 in Calm     82.8% 0.00 in 0 W/m2
23:19 56.5 °F 51.4 °F 29.91 in Calm     83% 0.00 in 0 W/m2
23:24 56.5 °F 51.4 °F 29.91 in Calm     83% 0.00 in 0 W/m2
23:29 56.5 °F 51.6 °F 29.92 in Calm     83.8% 0.00 in 0 W/m2
23:34 56.3 °F 51.5 °F 29.92 in Calm     84% 0.00 in 0 W/m2
23:39 56.1 °F 51.4 °F 29.92 in Calm     84% 0.00 in 0 W/m2
23:44 56.1 °F 51.4 °F 29.92 in Calm     84% 0.00 in 0 W/m2
23:49 55.8 °F 51.2 °F 29.92 in Calm     84% 0.00 in 0 W/m2
23:54 55.6 °F 51 °F 29.92 in Calm     84.6% 0.00 in 0 W/m2
23:59 55.2 °F 50.7 °F 29.92 in Calm     85% 0.00 in 0 W/m2
Bath Spa Weather
Compliments of Weather Underground - 2 mb